Crescent City, FL (32112)

22:01 EDT le 14 septembre 2014 (GMT -0400)
Beulah Church Rd,Fruitland | Change Station
CLOSE
Current Station
Stations météorologiques personnelles
Location: Crescent City, FL
Altitude: 45 ft
Stations météo à proximité

Alt. 45 ft 29.44 °N, 81.63 °W | Updated 12 seconds ago

Partiellement nuageux
Partiellement nuageux
78.1 ° F
Paraît 81 ° F
N
0.0
Vent Variable Vent de Est
Gusts 1.0 mph

Aujourd'hui
Haut(e) -- | Bas -- ° F
--% Risque de précip.
Hier
Haut(e) -- | Bas -- ° F
Precip. -- pouce
7:10 AM 7:32 PM
Lune gibbeuse décroissante, 60% visible
Pression 30.15 pouce
Visibilité 10.0 Miles terrestres
Nuages Nuages épars 2700 ft
indice de chaleur 81 ° F
Point de rosée 74 ° F
Humidité 86%
Précipitations 0.00 pouce
Profondeur de la couche neigeuse Non disponible.
UV 0 sur 12
Pollen 8.00 sur 12
Qualité de l'air Non disponible.
Flu Activity Non disponible.
METAR KXFL 150155Z AUTO 00000KT 10SM SCT027 26/23 A3015 RMK AO2 T02590225

More Conditions Fewer Conditions

Pression 30.15 pouce
Visibilité 10.0 Miles terrestres
Nuages Nuages épars 2700 ft
indice de chaleur 81 ° F
Point de rosée 74 ° F
Humidité 86%
Précipitations 0.00 pouce
Profondeur de la couche neigeuse Non disponible.
UV 0 sur 12
Pollen 8.00 sur 12
Qualité de l'air Non disponible.
Flu Activity Non disponible.
METAR KXFL 150155Z AUTO 00000KT 10SM SCT027 26/23 A3015 RMK AO2 T02590225

More Conditions Fewer Conditions

10-Day Weather Forecast

Almanac

Astronomie

Sep. 14, 2014 Lever Coucher
Temps réel 07:10 EDT 19:32 EDT
Crépuscule civil 06:46 EDT 19:56 EDT
Crépuscule nautique 06:18 EDT 20:24 EDT
Crépuscule astronomique 05:50 EDT 20:52 EDT
Lune 23:49 EDT (9/14) 12:49 EDT (9/14)
Durée de lumière visible 13h 09m
Longueur du jour
12h 22m
Tomorrow will be 1m 45s shorter.
Lune gibbeuse décroissante, 60% of the Moon is Illuminated
Aujourd'hui
Lune gibbeuse décroissante
Sep 15
Dernier quartier
Sep 24
Nouveau
Oct 1
Premier quartier
Oct 8
Pleine lune

Extrêmes aujourd'hui

State Highs State Lows

Community

WunderPhotos

Upload Photos

1,753,371 Photos téléchargées !

Nearby

Épaisseur de neige

Station Depth Altitude
Pas de nouvelles chutes de neige

Activité sismique

Ville Distance Mag. Time & Date
No recent earthquake activity has been reported nearby.
Minimum magnitude displayed is 2.5.

Températures des eaux côtières

Lieu Température
Mayport (Bar Pilots Dock), FL 86.0 ° F
Fernandina Beach, FL 87.1 ° F
Trident Pier, FL 86.0 ° F

Stations météo à proximité